createdAt,value
2019-04-30T00:02:06.438Z,58.10
2019-04-30T00:04:40.224Z,58.10
2019-04-30T00:07:10.305Z,58.40
2019-04-30T00:09:37.776Z,58.30
2019-04-30T00:12:06.584Z,58.20
2019-04-30T00:14:38.589Z,58.40
2019-04-30T00:17:06.406Z,58.20
2019-04-30T00:19:35.937Z,58.20
2019-04-30T00:22:05.737Z,58.10
2019-04-30T00:24:35.484Z,58.20
2019-04-30T00:27:05.109Z,58.20
2019-04-30T00:29:35.546Z,58.20
2019-04-30T00:32:07.683Z,58.30
2019-04-30T00:34:37.902Z,58.40
2019-04-30T00:37:07.280Z,58.80
2019-04-30T00:39:36.288Z,58.80
2019-04-30T00:42:05.079Z,58.70
2019-04-30T00:44:35.552Z,58.60
2019-04-30T00:47:08.215Z,58.60
2019-04-30T00:49:37.253Z,58.60
2019-04-30T00:52:06.039Z,58.60
2019-04-30T00:54:35.207Z,58.70
2019-04-30T00:57:07.529Z,58.60
2019-04-30T00:59:35.078Z,58.60
2019-04-30T01:02:06.100Z,58.60
2019-04-30T01:04:39.024Z,58.60
2019-04-30T01:07:08.698Z,58.50
2019-04-30T01:09:39.590Z,58.60
2019-04-30T01:12:08.093Z,58.60
2019-04-30T01:14:38.216Z,58.60
2019-04-30T01:17:08.788Z,58.70
2019-04-30T01:19:39.527Z,58.80
2019-04-30T01:22:09.052Z,59.00
2019-04-30T01:24:38.735Z,59.00
2019-04-30T01:27:10.491Z,58.90
2019-04-30T01:29:43.942Z,58.80
2019-04-30T01:32:12.226Z,58.90
2019-04-30T01:34:39.541Z,58.90
2019-04-30T01:37:08.789Z,59.00
2019-04-30T01:39:39.143Z,59.20
2019-04-30T01:42:11.319Z,59.20
2019-04-30T01:44:39.189Z,59.20
2019-04-30T01:47:08.939Z,59.20
2019-04-30T01:49:42.835Z,59.40
2019-04-30T01:52:09.580Z,59.70
2019-04-30T01:54:39.142Z,59.70
2019-04-30T01:57:12.637Z,59.90
2019-04-30T02:00:00.639Z,60.10
2019-04-30T02:02:31.156Z,61.00
2019-04-30T02:04:59.988Z,60.20
2019-04-30T02:07:28.886Z,60.40
2019-04-30T02:09:58.775Z,61.30
2019-04-30T02:12:29.498Z,60.60
2019-04-30T02:14:59.675Z,60.60
2019-04-30T02:17:29.254Z,60.80
2019-04-30T02:19:59.358Z,60.80
2019-04-30T02:22:30.928Z,61.20
2019-04-30T02:24:58.960Z,61.60
2019-04-30T02:27:29.438Z,62.10
2019-04-30T02:29:59.418Z,61.80
2019-04-30T02:32:30.497Z,61.60
2019-04-30T02:35:01.738Z,61.80
2019-04-30T02:37:39.922Z,61.80
2019-04-30T02:40:10.087Z,62.00
2019-04-30T02:42:39.841Z,62.00
2019-04-30T02:45:10.437Z,62.10
2019-04-30T02:47:40.040Z,62.20
2019-04-30T02:50:15.457Z,62.30
2019-04-30T02:52:41.384Z,62.60
2019-04-30T02:55:13.080Z,62.40
2019-04-30T02:57:41.900Z,62.50
2019-04-30T03:00:20.493Z,62.50
2019-04-30T03:02:50.565Z,62.50
2019-04-30T03:05:20.298Z,63.60
2019-04-30T03:07:50.411Z,63.60
2019-04-30T03:10:20.011Z,63.50
2019-04-30T03:12:49.942Z,63.30
2019-04-30T03:15:19.485Z,63.50
2019-04-30T03:17:50.969Z,63.50
2019-04-30T03:20:34.618Z,63.50
2019-04-30T03:22:51.873Z,63.60
2019-04-30T03:25:20.657Z,63.70
2019-04-30T03:27:49.855Z,63.80
2019-04-30T03:30:21.726Z,64.80
2019-04-30T03:32:55.953Z,65.40
2019-04-30T03:35:22.801Z,65.40
2019-04-30T03:37:50.198Z,65.60
2019-04-30T03:40:20.194Z,65.70
2019-04-30T03:42:49.479Z,66.40
2019-04-30T03:45:20.464Z,66.60
2019-04-30T03:47:50.525Z,66.80
2019-04-30T03:50:19.959Z,67.40
2019-04-30T03:52:50.333Z,67.30
2019-04-30T03:55:20.580Z,67.50
2019-04-30T03:57:51.928Z,67.40
2019-04-30T04:00:24.615Z,67.50
2019-04-30T04:02:53.412Z,67.20
2019-04-30T04:05:26.662Z,67.40
2019-04-30T04:08:00.091Z,67.30
2019-04-30T04:10:36.613Z,67.40
2019-04-30T04:13:05.465Z,67.30
2019-04-30T04:15:34.304Z,66.90
2019-04-30T04:18:03.126Z,66.90
2019-04-30T04:20:32.294Z,66.70
2019-04-30T04:23:01.086Z,66.70
2019-04-30T04:25:30.112Z,66.70
2019-04-30T04:28:00.412Z,66.70
2019-04-30T04:30:29.888Z,66.70
2019-04-30T04:32:59.971Z,67.20
2019-04-30T04:35:29.852Z,67.30
2019-04-30T04:38:00.357Z,66.90
2019-04-30T04:40:30.178Z,66.80
2019-04-30T04:43:00.282Z,66.80
2019-04-30T04:45:30.539Z,66.70
2019-04-30T04:48:00.228Z,66.50
2019-04-30T04:50:30.297Z,67.10
2019-04-30T04:52:59.549Z,67.10
2019-04-30T04:55:29.969Z,66.90
2019-04-30T04:57:59.923Z,66.60
2019-04-30T05:00:29.317Z,66.80
2019-04-30T05:03:02.627Z,66.60
2019-04-30T05:05:31.579Z,66.40
2019-04-30T05:08:00.392Z,66.20
2019-04-30T05:10:30.258Z,66.10
2019-04-30T05:12:59.316Z,66.00
2019-04-30T05:15:29.529Z,66.00
2019-04-30T05:17:59.243Z,66.00
2019-04-30T05:20:29.217Z,65.80
2019-04-30T05:22:58.541Z,65.50
2019-04-30T05:25:27.342Z,65.20
2019-04-30T05:27:56.210Z,65.00
2019-04-30T05:30:25.051Z,64.80
2019-04-30T05:32:53.860Z,64.70
2019-04-30T05:35:22.659Z,64.60
2019-04-30T05:37:51.413Z,64.70
2019-04-30T05:40:20.253Z,64.60
2019-04-30T05:42:49.617Z,64.50
2019-04-30T05:45:19.282Z,64.60
2019-04-30T05:47:50.186Z,64.20
2019-04-30T05:50:20.015Z,64.40
2019-04-30T05:52:49.302Z,64.60
2019-04-30T05:55:19.867Z,64.50
2019-04-30T05:57:55.856Z,64.70
2019-04-30T06:00:19.687Z,64.40
2019-04-30T06:02:49.691Z,64.40
2019-04-30T06:05:18.950Z,64.10
2019-04-30T06:07:51.621Z,63.80
2019-04-30T06:10:19.905Z,63.60
2019-04-30T06:12:56.349Z,63.40
2019-04-30T06:15:26.740Z,63.40
2019-04-30T06:18:02.884Z,62.70
2019-04-30T06:20:26.144Z,62.60
2019-04-30T06:22:56.990Z,61.80
2019-04-30T06:25:32.106Z,61.10
2019-04-30T06:27:58.853Z,60.00
2019-04-30T06:30:29.718Z,59.70
2019-04-30T06:32:59.340Z,59.80
2019-04-30T06:35:29.449Z,59.80
2019-04-30T06:37:58.943Z,59.60
2019-04-30T06:40:29.318Z,59.40
2019-04-30T06:43:00.664Z,59.00
2019-04-30T06:45:29.728Z,59.00
2019-04-30T06:48:00.265Z,58.90
2019-04-30T06:50:29.286Z,58.50
2019-04-30T06:53:00.981Z,58.60
2019-04-30T06:55:30.667Z,57.90
2019-04-30T06:58:11.183Z,57.60
2019-04-30T07:00:40.112Z,57.60
2019-04-30T07:03:09.641Z,57.60
2019-04-30T07:05:39.195Z,57.50
2019-04-30T07:08:36.154Z,57.50
2019-04-30T07:11:14.465Z,57.10
2019-04-30T07:13:44.820Z,57.10
2019-04-30T07:16:13.665Z,56.40
2019-04-30T07:18:42.435Z,56.70
2019-04-30T07:21:11.291Z,56.70
2019-04-30T07:23:40.137Z,56.20
2019-04-30T07:26:09.187Z,56.50
2019-04-30T07:28:44.810Z,56.00
2019-04-30T07:31:14.105Z,56.20
2019-04-30T07:33:39.691Z,56.10
2019-04-30T07:36:09.609Z,55.70
2019-04-30T07:38:43.181Z,56.10
2019-04-30T07:41:09.579Z,56.00
2019-04-30T07:43:39.346Z,56.10
2019-04-30T07:46:09.278Z,55.50
2019-04-30T07:48:40.217Z,56.00
2019-04-30T07:51:10.485Z,56.10
2019-04-30T07:53:40.432Z,56.10
2019-04-30T07:56:24.267Z,55.90
2019-04-30T07:58:39.971Z,55.90
2019-04-30T08:01:10.282Z,55.60
2019-04-30T08:03:41.329Z,55.50
2019-04-30T08:06:10.809Z,55.80
2019-04-30T08:08:40.937Z,56.00
2019-04-30T08:11:22.759Z,56.00
2019-04-30T08:13:41.360Z,56.30
2019-04-30T08:16:10.714Z,56.50
2019-04-30T08:18:39.540Z,56.40
2019-04-30T08:21:09.463Z,56.00
2019-04-30T08:23:39.767Z,56.20
2019-04-30T08:26:08.936Z,56.20
2019-04-30T08:28:38.621Z,56.30
2019-04-30T08:31:09.005Z,56.10
2019-04-30T08:33:40.078Z,56.20
2019-04-30T08:36:09.462Z,56.20
2019-04-30T08:38:39.433Z,55.60
2019-04-30T08:41:09.328Z,55.30
2019-04-30T08:43:39.452Z,55.20
2019-04-30T08:46:09.397Z,55.20
2019-04-30T08:48:46.122Z,55.30
2019-04-30T08:51:09.969Z,54.90
2019-04-30T08:53:40.983Z,54.90
2019-04-30T08:56:10.188Z,54.40
2019-04-30T08:58:39.157Z,54.10
2019-04-30T09:01:08.774Z,53.90
2019-04-30T09:03:39.302Z,53.40
2019-04-30T09:06:09.769Z,53.70
2019-04-30T09:08:40.046Z,54.10
2019-04-30T09:11:22.109Z,53.80
2019-04-30T09:13:39.449Z,53.50
2019-04-30T09:16:09.299Z,53.60
2019-04-30T09:18:39.395Z,53.90
2019-04-30T09:21:08.990Z,53.70
2019-04-30T09:23:44.634Z,53.40
2019-04-30T09:26:08.764Z,53.90
2019-04-30T09:28:40.742Z,52.60
2019-04-30T09:31:08.711Z,53.10
2019-04-30T09:33:39.231Z,52.70
2019-04-30T09:36:09.176Z,52.90
2019-04-30T09:38:38.938Z,53.00
2019-04-30T09:41:09.346Z,52.90
2019-04-30T09:43:40.398Z,52.70
2019-04-30T09:46:18.729Z,52.50
2019-04-30T09:48:39.130Z,52.60
2019-04-30T09:51:10.586Z,52.20
2019-04-30T09:53:39.535Z,51.80
2019-04-30T09:56:09.594Z,52.00
2019-04-30T09:58:39.320Z,51.40
2019-04-30T10:01:09.405Z,51.00
2019-04-30T10:03:39.197Z,51.00
2019-04-30T10:06:08.989Z,50.80
2019-04-30T10:08:48.193Z,51.20
2019-04-30T10:11:25.263Z,51.20
2019-04-30T10:13:54.020Z,51.50
2019-04-30T10:16:24.440Z,51.60
2019-04-30T10:18:53.406Z,51.40
2019-04-30T10:21:22.248Z,50.60
2019-04-30T10:23:50.997Z,50.90
2019-04-30T10:26:20.269Z,51.20
2019-04-30T10:28:51.088Z,51.40
2019-04-30T10:31:20.951Z,51.70
2019-04-30T10:33:49.900Z,51.80
2019-04-30T10:36:19.397Z,51.20
2019-04-30T10:38:49.396Z,51.50
2019-04-30T10:41:18.845Z,51.60
2019-04-30T10:43:49.251Z,51.90
2019-04-30T10:46:18.385Z,52.40
2019-04-30T10:48:47.246Z,52.20
2019-04-30T10:51:16.122Z,52.30
2019-04-30T10:53:44.952Z,52.40
2019-04-30T10:56:13.806Z,52.30
2019-04-30T10:58:42.663Z,52.10
2019-04-30T11:01:11.494Z,52.20
2019-04-30T11:03:42.835Z,52.00
2019-04-30T11:06:10.729Z,52.00
2019-04-30T11:08:39.590Z,51.70
2019-04-30T11:11:08.473Z,51.80
2019-04-30T11:13:37.231Z,52.10
2019-04-30T11:16:12.465Z,52.50
2019-04-30T11:18:36.907Z,52.60
2019-04-30T11:21:06.330Z,52.20
2019-04-30T11:23:35.441Z,53.10
2019-04-30T11:26:04.688Z,52.20
2019-04-30T11:28:34.088Z,52.50
2019-04-30T11:31:04.823Z,52.30
2019-04-30T11:33:34.331Z,52.70
2019-04-30T11:36:05.035Z,52.60
2019-04-30T11:38:33.950Z,51.40
2019-04-30T11:41:02.823Z,51.90
2019-04-30T11:43:31.597Z,51.30
2019-04-30T11:46:26.323Z,51.60
2019-04-30T11:48:55.388Z,51.20
2019-04-30T11:51:26.812Z,51.60
2019-04-30T11:53:54.603Z,51.40
2019-04-30T11:56:23.415Z,51.70
2019-04-30T11:58:52.265Z,51.60
2019-04-30T12:01:22.692Z,51.70
2019-04-30T12:03:51.469Z,52.20
2019-04-30T12:06:20.292Z,51.60
2019-04-30T12:09:02.974Z,51.70
2019-04-30T12:11:42.229Z,50.90
2019-04-30T12:14:11.028Z,51.20
2019-04-30T12:16:39.845Z,51.80
2019-04-30T12:19:09.110Z,52.10
2019-04-30T12:21:38.162Z,52.10
2019-04-30T12:24:06.919Z,51.50
2019-04-30T12:26:35.663Z,51.50
2019-04-30T12:29:04.467Z,52.00
2019-04-30T12:31:33.237Z,52.10
2019-04-30T12:34:02.009Z,52.40
2019-04-30T12:36:30.791Z,52.10
2019-04-30T12:38:59.622Z,52.10
2019-04-30T12:41:28.413Z,52.70
2019-04-30T12:43:57.335Z,53.70
2019-04-30T12:46:28.922Z,53.90
2019-04-30T12:49:02.594Z,55.00
2019-04-30T12:51:44.784Z,56.50
2019-04-30T12:54:05.171Z,57.50
2019-04-30T12:56:35.625Z,58.50
2019-04-30T12:59:04.494Z,59.70
2019-04-30T13:01:34.190Z,60.20
2019-04-30T13:04:03.166Z,60.60
2019-04-30T13:06:32.327Z,62.40
2019-04-30T13:09:02.181Z,63.40
2019-04-30T13:11:32.165Z,63.50
2019-04-30T13:14:01.755Z,62.70
2019-04-30T13:16:31.190Z,61.80
2019-04-30T13:19:00.086Z,63.70
2019-04-30T13:21:28.937Z,63.60
2019-04-30T13:23:57.767Z,64.20
2019-04-30T13:26:28.484Z,65.00
2019-04-30T13:29:04.335Z,65.60
2019-04-30T13:31:33.198Z,66.30
2019-04-30T13:34:19.797Z,66.20
2019-04-30T13:36:49.388Z,66.50
2019-04-30T13:39:22.129Z,66.70
2019-04-30T13:41:57.110Z,67.20
2019-04-30T13:44:29.399Z,67.40
2019-04-30T13:46:58.398Z,67.10
2019-04-30T13:49:30.020Z,67.10
2019-04-30T13:51:59.218Z,66.90
2019-04-30T13:54:28.989Z,65.90
2019-04-30T13:56:59.139Z,66.20
2019-04-30T13:59:27.964Z,65.50
2019-04-30T14:01:58.702Z,64.80
2019-04-30T14:04:31.576Z,64.90
2019-04-30T14:07:10.736Z,64.60
2019-04-30T14:09:39.532Z,64.40
2019-04-30T14:12:08.621Z,64.20
2019-04-30T14:14:39.403Z,64.00
2019-04-30T14:17:09.264Z,63.80
2019-04-30T14:19:38.225Z,63.80
2019-04-30T14:22:08.986Z,62.10
2019-04-30T14:24:37.893Z,62.20
2019-04-30T14:27:08.850Z,62.30
2019-04-30T14:29:39.579Z,62.40
2019-04-30T14:32:08.709Z,62.80
2019-04-30T14:34:39.376Z,61.90
2019-04-30T14:37:07.984Z,61.20
2019-04-30T14:39:37.076Z,61.10
2019-04-30T14:42:07.019Z,60.80
2019-04-30T14:44:37.930Z,60.30
2019-04-30T14:47:11.622Z,60.10
2019-04-30T14:49:41.600Z,59.50
2019-04-30T14:52:10.787Z,58.90
2019-04-30T14:54:53.502Z,58.70
2019-04-30T14:57:26.670Z,58.70
2019-04-30T15:00:13.473Z,57.80
2019-04-30T15:02:59.148Z,57.90
2019-04-30T15:05:38.516Z,57.00
2019-04-30T15:07:59.363Z,57.40
2019-04-30T15:10:29.083Z,56.60
2019-04-30T15:12:57.882Z,56.90
2019-04-30T15:15:26.786Z,56.80
2019-04-30T15:17:55.600Z,56.70
2019-04-30T15:20:24.402Z,56.40
2019-04-30T15:23:18.969Z,54.40
2019-04-30T15:25:41.918Z,52.60
2019-04-30T15:28:10.750Z,52.60
2019-04-30T15:30:41.800Z,52.50
2019-04-30T15:33:14.420Z,52.20
2019-04-30T15:35:43.183Z,52.00
2019-04-30T15:38:12.009Z,52.10
2019-04-30T15:40:40.839Z,51.90
2019-04-30T15:43:09.645Z,52.40
2019-04-30T15:45:39.157Z,51.90
2019-04-30T15:48:08.548Z,52.00
2019-04-30T15:50:39.178Z,52.30
2019-04-30T15:53:09.457Z,51.00
2019-04-30T15:55:38.398Z,51.50
2019-04-30T15:58:09.333Z,51.80
2019-04-30T16:00:39.408Z,51.80
2019-04-30T16:03:09.891Z,51.90
2019-04-30T16:05:43.162Z,52.20
2019-04-30T16:08:16.570Z,52.30
2019-04-30T16:10:55.973Z,52.40
2019-04-30T16:13:26.376Z,52.30
2019-04-30T16:15:55.211Z,52.20
2019-04-30T16:18:25.637Z,52.50
2019-04-30T16:20:54.413Z,52.60
2019-04-30T16:23:23.199Z,52.80
2019-04-30T16:25:52.065Z,53.80
2019-04-30T16:28:20.857Z,53.40
2019-04-30T16:30:49.682Z,53.50
2019-04-30T16:33:19.483Z,53.70
2019-04-30T16:35:50.859Z,53.80
2019-04-30T16:38:20.917Z,54.00
2019-04-30T16:40:49.240Z,54.20
2019-04-30T16:43:18.647Z,54.20
2019-04-30T16:45:49.342Z,54.40
2019-04-30T16:48:19.389Z,54.60
2019-04-30T16:50:51.121Z,54.80
2019-04-30T16:53:19.099Z,54.40
2019-04-30T16:55:50.407Z,53.30
2019-04-30T16:58:19.606Z,53.00
2019-04-30T17:00:49.300Z,53.10
2019-04-30T17:03:29.135Z,53.00
2019-04-30T17:05:59.701Z,53.10
2019-04-30T17:08:31.932Z,53.00
2019-04-30T17:11:20.398Z,53.10
2019-04-30T17:13:52.891Z,53.00
2019-04-30T17:16:23.430Z,53.00
2019-04-30T17:18:52.288Z,53.10
2019-04-30T17:21:21.034Z,53.30
2019-04-30T17:23:52.257Z,53.40
2019-04-30T17:26:21.082Z,53.40
2019-04-30T17:28:50.029Z,53.50
2019-04-30T17:31:21.697Z,53.30
2019-04-30T17:33:50.599Z,53.50
2019-04-30T17:36:29.667Z,53.70
2019-04-30T17:38:58.394Z,53.90
2019-04-30T17:41:31.486Z,54.20
2019-04-30T17:44:00.313Z,54.40
2019-04-30T17:46:29.358Z,54.60
2019-04-30T17:48:59.273Z,54.90
2019-04-30T17:51:32.249Z,55.10
2019-04-30T17:54:11.625Z,55.50
2019-04-30T17:56:41.065Z,55.80
2019-04-30T17:59:13.068Z,55.90
2019-04-30T18:01:49.842Z,56.00
2019-04-30T18:04:22.046Z,56.10
2019-04-30T18:06:50.647Z,56.20
2019-04-30T18:09:19.713Z,56.20
2019-04-30T18:11:49.567Z,56.40
2019-04-30T18:14:18.931Z,56.70
2019-04-30T18:16:48.665Z,57.20
2019-04-30T18:19:19.205Z,57.20
2019-04-30T18:22:06.140Z,57.30
2019-04-30T18:24:39.504Z,57.30
2019-04-30T18:27:20.950Z,57.40
2019-04-30T18:29:51.936Z,57.30
2019-04-30T18:32:25.204Z,57.40
2019-04-30T18:34:59.028Z,57.30
2019-04-30T18:37:25.935Z,56.90
2019-04-30T18:39:55.030Z,56.90
2019-04-30T18:42:25.130Z,56.80
2019-04-30T18:44:55.431Z,56.20
2019-04-30T18:47:24.289Z,55.80
2019-04-30T18:49:54.615Z,55.90
2019-04-30T18:52:23.511Z,55.80
2019-04-30T18:54:52.387Z,55.70
2019-04-30T18:57:22.340Z,55.70
2019-04-30T18:59:51.062Z,56.00
2019-04-30T19:02:20.240Z,56.20
2019-04-30T19:04:54.234Z,56.10
2019-04-30T19:07:39.165Z,56.30
2019-04-30T19:10:20.107Z,56.30
2019-04-30T19:13:05.568Z,56.40
2019-04-30T19:16:14.820Z,56.60
2019-04-30T19:18:20.124Z,56.80
2019-04-30T19:20:51.989Z,56.90
2019-04-30T19:23:23.567Z,57.10
2019-04-30T19:25:55.663Z,57.30
2019-04-30T19:28:24.529Z,57.60
2019-04-30T19:30:58.841Z,57.60
2019-04-30T19:33:26.362Z,58.00
2019-04-30T19:35:55.125Z,57.90
2019-04-30T19:38:23.941Z,58.00
2019-04-30T19:40:52.771Z,58.10
2019-04-30T19:43:21.592Z,58.20
2019-04-30T19:45:51.214Z,58.50
2019-04-30T19:48:20.195Z,58.80
2019-04-30T19:50:49.000Z,58.90
2019-04-30T19:53:21.800Z,59.20
2019-04-30T19:55:49.251Z,59.30
2019-04-30T19:58:26.090Z,59.60
2019-04-30T20:00:49.866Z,59.70
2019-04-30T20:03:19.735Z,60.00
2019-04-30T20:05:48.891Z,60.40
2019-04-30T20:08:19.736Z,60.50
2019-04-30T20:10:49.603Z,60.50
2019-04-30T20:13:30.598Z,60.60
2019-04-30T20:15:49.378Z,60.70
2019-04-30T20:18:19.042Z,60.90
2019-04-30T20:20:51.871Z,61.40
2019-04-30T20:23:20.087Z,61.60
2019-04-30T20:25:48.895Z,61.60
2019-04-30T20:28:17.723Z,61.90
2019-04-30T20:30:46.559Z,61.90
2019-04-30T20:33:15.338Z,61.80
2019-04-30T20:35:44.163Z,62.20
2019-04-30T20:38:30.846Z,62.30
2019-04-30T20:41:02.965Z,62.50
2019-04-30T20:43:30.209Z,62.60
2019-04-30T20:46:00.831Z,63.10
2019-04-30T20:48:29.952Z,63.50
2019-04-30T20:51:01.086Z,63.50
2019-04-30T20:53:29.301Z,63.70
2019-04-30T20:55:59.342Z,63.90
2019-04-30T20:58:28.222Z,64.00
2019-04-30T21:01:03.448Z,64.30
2019-04-30T21:03:29.390Z,64.60
2019-04-30T21:06:00.348Z,64.80
2019-04-30T21:08:28.481Z,64.70
2019-04-30T21:10:59.268Z,65.00
2019-04-30T21:13:29.473Z,65.20
2019-04-30T21:15:59.480Z,65.30
2019-04-30T21:18:30.524Z,65.50
2019-04-30T21:20:59.612Z,65.60
2019-04-30T21:23:29.255Z,65.80
2019-04-30T21:25:58.984Z,66.00
2019-04-30T21:28:29.646Z,65.60
2019-04-30T21:30:59.962Z,65.60
2019-04-30T21:33:33.177Z,65.60
2019-04-30T21:36:06.337Z,65.80
2019-04-30T21:38:35.081Z,65.90
2019-04-30T21:41:03.899Z,66.10
2019-04-30T21:43:32.693Z,66.30
2019-04-30T21:46:01.533Z,66.40
2019-04-30T21:48:30.364Z,66.60
2019-04-30T21:50:59.378Z,66.90
2019-04-30T21:53:29.488Z,67.10
2019-04-30T21:55:58.443Z,66.90
2019-04-30T21:58:29.065Z,67.00
2019-04-30T22:01:07.786Z,67.20
2019-04-30T22:03:36.950Z,67.40
2019-04-30T22:06:05.755Z,67.40
2019-04-30T22:08:34.510Z,67.50
2019-04-30T22:11:03.384Z,67.50
2019-04-30T22:13:32.133Z,67.40
2019-04-30T22:16:00.962Z,67.60
2019-04-30T22:18:29.743Z,67.70
2019-04-30T22:20:58.513Z,67.90
2019-04-30T22:23:27.325Z,68.30
2019-04-30T22:25:56.119Z,68.40
2019-04-30T22:28:24.869Z,68.60
2019-04-30T22:30:53.692Z,68.80
2019-04-30T22:33:22.499Z,69.00
2019-04-30T22:35:58.640Z,69.00
2019-04-30T22:38:45.470Z,69.10
2019-04-30T22:41:14.312Z,69.10
2019-04-30T22:43:43.128Z,69.40
2019-04-30T22:46:13.587Z,69.40
2019-04-30T22:48:42.407Z,69.30
2019-04-30T22:51:11.254Z,69.40
2019-04-30T22:53:40.107Z,69.70
2019-04-30T22:56:08.955Z,70.00
2019-04-30T22:58:38.032Z,70.20
2019-04-30T23:01:08.444Z,70.20
2019-04-30T23:03:37.266Z,70.40
2019-04-30T23:06:06.101Z,70.40
2019-04-30T23:08:34.894Z,70.40
2019-04-30T23:11:04.028Z,70.60
2019-04-30T23:13:32.798Z,71.10
2019-04-30T23:16:02.512Z,71.20
2019-04-30T23:18:32.278Z,71.10
2019-04-30T23:21:01.173Z,71.10
2019-04-30T23:23:30.045Z,71.20
2019-04-30T23:25:58.817Z,71.30
2019-04-30T23:28:27.653Z,71.40
2019-04-30T23:30:56.543Z,71.50
2019-04-30T23:33:25.252Z,71.70
2019-04-30T23:35:53.981Z,71.90
2019-04-30T23:38:22.839Z,72.20
2019-04-30T23:40:52.584Z,72.40
2019-04-30T23:43:22.685Z,72.40
2019-04-30T23:45:51.480Z,72.30
2019-04-30T23:48:20.546Z,72.40
2019-04-30T23:50:49.519Z,72.60
2019-04-30T23:53:18.382Z,72.80
2019-04-30T23:55:47.171Z,72.80
2019-04-30T23:58:15.911Z,72.70
